KFFA/FFA METAR and TAF weather

Enter ICAO airport designator
Station Type Date Time Source
KFFA METAR 2018/12/12 13:00 UTC NOAA

KFFA 121300Z AUTO 00000KT 10SM CLR 03/M02 A3021 RMK AO2 T00271018


Station Type Date Time Source
KFFA Decoded METAR 2018/12/12 13:00 UTC NOAA

Kill Devil Hills, First Flight Airport, NC, United States (KFFA) 36-01N 075-40W
Dec 12, 2018 - 08:00 AM EST / 2018.12.12 1300 UTC
Wind: Calm:0
Visibility: 10 mile(s):0
Sky conditions: clear
Temperature: 36.9 F (2.7 C)
Dew Point: 28.8 F (-1.8 C)
Relative Humidity: 72%
Pressure (altimeter): 30.21 in. Hg (1023 hPa)
ob: KFFA 121300Z AUTO 00000KT 10SM CLR 03/M02 A3021 RMK AO2 T00271018
cycle: 13

Station Type Date Time Source
KFFA TAF UTC NOAA

Error!


Example: see airport list